Time;durP1;ratioP1;P1;durP2;ratioP2;P2;SDS_P1;SDS_P2;PMS_P1;PMS_P2;Temp;Humidity;BMP_temperature;BMP_pressure;BME280_temperature;BME280_humidity;BME280_pressure;Samples;Min_cycle;Max_cycle;Signal;HPM_P1;HPM_P2
2022/04/06 00:01:41;;;;;;;9.73;8.80;;;9.60;82.30;;;;;;5137397;27;20297;-57
2022/04/06 00:04:08;;;;;;;9.23;8.23;;;9.60;82.10;;;;;;5137248;27;20281;-57
2022/04/06 00:06:36;;;;;;;9.00;8.10;;;9.60;82.10;;;;;;5137013;27;20222;-57
2022/04/06 00:09:03;;;;;;;9.55;8.65;;;9.60;82.30;;;;;;5137211;27;20206;-58
2022/04/06 00:11:30;;;;;;;10.30;9.30;;;9.50;82.30;;;;;;5135759;27;20199;-58
2022/04/06 00:13:57;;;;;;;9.90;8.93;;;9.40;82.60;;;;;;5137156;27;20598;-58
2022/04/06 00:16:24;;;;;;;8.95;8.15;;;9.40;83.00;;;;;;5136912;27;20554;-59
2022/04/06 00:18:51;;;;;;;9.82;8.93;;;9.30;83.50;;;;;;5136997;27;20238;-58
2022/04/06 00:21:19;;;;;;;9.15;8.25;;;9.20;83.60;;;;;;5136881;27;20668;-58
2022/04/06 00:23:47;;;;;;;8.82;8.02;;;9.20;83.80;;;;;;5136912;27;20210;-58
2022/04/06 00:26:14;;;;;;;9.43;8.40;;;9.20;84.10;;;;;;5136879;27;20764;-58
2022/04/06 00:28:40;;;;;;;9.15;8.25;;;9.20;84.20;;;;;;5135493;27;20387;-58
2022/04/06 00:31:07;;;;;;;10.20;9.20;;;9.20;84.20;;;;;;5136361;27;20697;-58
2022/04/06 00:33:34;;;;;;;10.02;8.48;;;9.30;84.10;;;;;;5136674;27;20237;-57
2022/04/06 00:36:01;;;;;;;8.65;7.85;;;9.30;83.80;;;;;;5136810;27;20198;-58
2022/04/06 00:38:28;;;;;;;9.55;8.63;;;9.40;83.90;;;;;;5136516;27;20202;-58
2022/04/06 00:40:56;;;;;;;9.85;8.25;;;9.40;83.80;;;;;;5136571;27;20206;-58
2022/04/06 00:43:23;;;;;;;10.50;8.15;;;9.40;83.70;;;;;;5135199;27;20209;-58
2022/04/06 00:45:50;;;;;;;9.80;8.80;;;9.40;83.80;;;;;;5136330;27;20209;-58
2022/04/06 00:48:16;;;;;;;9.00;7.90;;;9.40;83.60;;;;;;5135037;27;20287;-58
2022/04/06 00:50:43;;;;;;;8.90;8.00;;;9.30;84.10;;;;;;5136399;27;20271;-58
2022/04/06 00:53:12;;;;;;;8.73;7.90;;;9.20;84.70;;;;;;5136100;27;20253;-58
2022/04/06 00:55:40;;;;;;;9.32;8.20;;;9.20;84.70;;;;;;5136315;27;20237;-59
2022/04/06 00:58:08;;;;;;;9.07;8.15;;;9.10;84.80;;;;;;5134949;27;20203;-57
2022/04/06 01:00:36;;;;;;;9.32;8.35;;;9.10;85.30;;;;;;5136024;27;20194;-58
2022/04/06 01:03:03;;;;;;;9.40;8.50;;;9.20;84.80;;;;;;5136152;27;20297;-58
2022/04/06 01:05:30;;;;;;;9.25;8.35;;;9.20;84.90;;;;;;5135920;27;20211;-58
2022/04/06 01:08:00;;;;;;;8.73;7.88;;;9.30;84.60;;;;;;5135857;27;20306;-58
2022/04/06 01:10:27;;;;;;;9.80;8.30;;;9.30;84.50;;;;;;5135952;27;20288;-58
2022/04/06 01:12:55;;;;;;;9.20;8.13;;;9.30;84.40;;;;;;5134582;27;20232;-58
2022/04/06 01:15:24;;;;;;;9.45;7.50;;;9.40;84.20;;;;;;5135744;27;20226;-58
2022/04/06 01:17:51;;;;;;;9.35;8.10;;;9.40;84.40;;;;;;5135799;27;20672;-59
2022/04/06 01:20:18;;;;;;;8.88;7.97;;;9.40;84.10;;;;;;5135580;27;20213;-58
2022/04/06 01:22:46;;;;;;;10.00;7.93;;;9.20;84.50;;;;;;5135856;27;20691;-58
2022/04/06 01:25:13;;;;;;;9.05;8.15;;;9.30;84.60;;;;;;5135671;27;20649;-58
2022/04/06 01:27:40;;;;;;;9.32;7.72;;;9.40;84.40;;;;;;5134354;27;20203;-58
2022/04/06 01:30:08;;;;;;;9.07;8.18;;;9.40;84.20;;;;;;5135353;27;20199;-58
2022/04/06 01:32:36;;;;;;;9.07;8.18;;;9.30;84.30;;;;;;5135465;27;20231;-58
2022/04/06 01:35:04;;;;;;;8.68;7.88;;;9.30;84.50;;;;;;5135474;27;20203;-58
2022/04/06 01:37:32;;;;;;;8.38;7.60;;;9.30;84.60;;;;;;5135594;27;20205;-58
2022/04/06 01:40:03;;;;;;;9.00;8.10;;;9.30;84.80;;;;;;5135521;27;20205;-57
2022/04/06 01:42:29;;;;;;;8.25;7.45;;;9.40;84.60;;;;;;5134054;27;20198;-59
2022/04/06 01:44:56;;;;;;;9.00;8.10;;;9.50;83.80;;;;;;5135162;27;20661;-58
2022/04/06 01:47:23;;;;;;;10.20;8.60;;;9.50;83.80;;;;;;5135131;27;20238;-58
2022/04/06 01:52:35;;;;;;;10.25;8.35;;;9.30;84.60;;;;;;5135198;27;20225;-58
2022/04/06 01:55:06;;;;;;;8.27;7.53;;;9.20;84.90;;;;;;5135022;27;20664;-58
2022/04/06 01:57:33;;;;;;;9.30;8.38;;;9.20;85.40;;;;;;5133879;27;20209;-58
2022/04/06 02:00:02;;;;;;;8.75;7.95;;;9.30;84.80;;;;;;5134361;27;20206;-58
2022/04/06 02:02:31;;;;;;;10.73;8.40;;;9.30;84.60;;;;;;5134997;27;20284;-58
2022/04/06 02:04:59;;;;;;;9.52;8.63;;;9.30;84.70;;;;;;5134734;27;20650;-58
2022/04/06 02:07:26;;;;;;;8.18;7.43;;;9.20;84.80;;;;;;5134965;27;20198;-58
2022/04/06 02:09:53;;;;;;;9.98;9.07;;;9.30;84.70;;;;;;5134827;27;20294;-58
2022/04/06 02:12:22;;;;;;;9.50;8.50;;;9.40;84.50;;;;;;5133321;27;20222;-58
2022/04/06 02:14:50;;;;;;;9.40;8.50;;;9.40;84.20;;;;;;5134584;27;20216;-58
2022/04/06 02:17:17;;;;;;;8.93;8.02;;;9.40;84.10;;;;;;5134583;27;20203;-58
2022/04/06 02:19:44;;;;;;;8.80;7.90;;;9.50;83.70;;;;;;5134544;27;20207;-58
2022/04/06 02:22:11;;;;;;;10.02;8.57;;;9.50;83.50;;;;;;5134590;27;20236;-59
2022/04/06 02:24:39;;;;;;;8.98;8.07;;;9.40;83.70;;;;;;5134537;27;20230;-58
2022/04/06 02:27:07;;;;;;;8.70;7.90;;;9.30;84.30;;;;;;5133038;27;20202;-59
2022/04/06 02:29:36;;;;;;;8.60;7.80;;;9.30;84.30;;;;;;5134306;27;20203;-58
2022/04/06 02:32:03;;;;;;;9.57;8.68;;;9.30;84.40;;;;;;5134384;27;20252;-57
2022/04/06 02:34:30;;;;;;;9.25;8.35;;;9.20;84.60;;;;;;5134226;27;20706;-58
2022/04/06 02:36:56;;;;;;;9.27;8.38;;;9.30;84.60;;;;;;5134366;27;20241;-59
2022/04/06 02:39:23;;;;;;;10.00;9.00;;;9.30;84.50;;;;;;5134134;27;20198;-58
2022/04/06 02:41:51;;;;;;;10.38;9.05;;;9.30;84.90;;;;;;5132938;27;20301;-59
2022/04/06 02:44:18;;;;;;;10.23;9.07;;;9.30;84.60;;;;;;5134283;27;20246;-58
2022/04/06 02:46:48;;;;;;;9.30;8.40;;;9.20;84.80;;;;;;5134074;27;20293;-59
2022/04/06 02:49:15;;;;;;;10.35;8.80;;;9.20;85.00;;;;;;5134112;27;20657;-58
2022/04/06 02:51:42;;;;;;;9.30;8.48;;;9.10;85.20;;;;;;5134304;27;20209;-58
2022/04/06 02:54:09;;;;;;;9.25;8.35;;;9.20;85.50;;;;;;5133833;27;20800;-58
2022/04/06 02:56:36;;;;;;;9.57;8.68;;;9.30;85.10;;;;;;5132883;27;20563;-58
2022/04/06 02:59:02;;;;;;;9.65;8.73;;;9.20;84.90;;;;;;5134117;27;20691;-58
2022/04/06 03:01:30;;;;;;;9.43;8.50;;;9.30;84.70;;;;;;5133879;27;20230;-58
2022/04/06 03:03:58;;;;;;;9.23;8.32;;;9.40;84.50;;;;;;5133988;27;20202;-58
2022/04/06 03:06:25;;;;;;;10.10;9.00;;;9.40;84.40;;;;;;5133758;27;20309;-58
2022/04/06 03:08:52;;;;;;;9.93;8.93;;;9.30;84.50;;;;;;5133946;27;20228;-58
2022/04/06 03:11:19;;;;;;;9.15;8.25;;;9.20;85.00;;;;;;5133123;27;20208;-58
2022/04/06 03:13:46;;;;;;;9.82;8.85;;;9.20;84.90;;;;;;5132944;27;20227;-58
2022/04/06 03:16:12;;;;;;;9.60;8.60;;;9.20;84.80;;;;;;5133629;27;20198;-58
2022/04/06 03:18:39;;;;;;;8.90;8.00;;;9.20;84.80;;;;;;5133695;27;20209;-58
2022/04/06 03:21:07;;;;;;;9.60;8.70;;;9.20;84.80;;;;;;5133817;27;20293;-58
2022/04/06 03:23:34;;;;;;;11.07;9.50;;;9.20;85.00;;;;;;5133880;27;20297;-58
2022/04/06 03:26:01;;;;;;;10.65;9.60;;;9.20;85.00;;;;;;5133784;27;20207;-58
2022/04/06 03:28:28;;;;;;;10.82;8.90;;;9.20;85.00;;;;;;5133505;27;20234;-58
2022/04/06 03:30:55;;;;;;;10.40;9.43;;;9.30;84.70;;;;;;5133452;27;20230;-58
2022/04/06 03:33:22;;;;;;;10.55;9.10;;;9.30;84.50;;;;;;5133592;27;20659;-58
2022/04/06 03:35:49;;;;;;;10.73;9.68;;;9.40;84.60;;;;;;5133539;27;20198;-58
2022/04/06 03:38:17;;;;;;;10.38;9.38;;;9.40;84.30;;;;;;5133783;27;20210;-58
2022/04/06 03:40:44;;;;;;;10.32;9.25;;;9.40;84.10;;;;;;5133565;27;20234;-58
2022/04/06 03:43:11;;;;;;;10.85;9.75;;;9.30;84.30;;;;;;5132293;27;20217;-58
2022/04/06 03:45:38;;;;;;;12.13;9.43;;;9.30;84.50;;;;;;5133565;27;20201;-58
2022/04/06 03:48:05;;;;;;;10.38;9.20;;;9.30;84.70;;;;;;5133671;27;20658;-58
2022/04/06 03:50:32;;;;;;;10.75;9.65;;;9.30;84.50;;;;;;5133321;27;20234;-58
2022/04/06 03:52:59;;;;;;;11.20;9.45;;;9.40;84.40;;;;;;5133452;27;20658;-58
2022/04/06 03:55:28;;;;;;;10.32;9.32;;;9.30;84.40;;;;;;5133453;27;20660;-58
2022/04/06 03:57:55;;;;;;;10.18;9.18;;;9.30;84.40;;;;;;5132022;27;20199;-58
2022/04/06 04:00:21;;;;;;;10.07;9.07;;;9.20;84.50;;;;;;5133327;27;20203;-58
2022/04/06 04:02:48;;;;;;;10.07;9.07;;;9.20;84.90;;;;;;5133399;27;20233;-58
2022/04/06 04:05:15;;;;;;;11.18;9.30;;;9.30;84.70;;;;;;5133082;27;20257;-58
2022/04/06 04:07:44;;;;;;;9.52;8.63;;;9.30;84.50;;;;;;5133380;27;20199;-58
2022/04/06 04:10:12;;;;;;;10.90;9.30;;;9.30;84.70;;;;;;5133255;27;20222;-57
2022/04/06 04:12:40;;;;;;;11.73;10.32;;;9.30;84.60;;;;;;5131993;27;20216;-58
2022/04/06 04:15:07;;;;;;;10.82;8.70;;;9.30;84.50;;;;;;5133048;27;20317;-58
2022/04/06 04:17:34;;;;;;;10.55;9.00;;;9.30;84.40;;;;;;5133053;27;20623;-58
2022/04/06 04:20:02;;;;;;;10.65;9.55;;;9.30;84.60;;;;;;5133132;27;20737;-58
2022/04/06 04:22:30;;;;;;;11.18;9.85;;;9.40;84.30;;;;;;5135751;27;20210;-57
2022/04/06 04:24:57;;;;;;;12.63;9.50;;;9.40;84.30;;;;;;5136888;27;20211;-57
2022/04/06 04:27:23;;;;;;;10.55;9.30;;;9.40;84.30;;;;;;5135553;27;20203;-57
2022/04/06 04:29:52;;;;;;;11.25;9.10;;;9.50;84.20;;;;;;5136655;27;20289;-57
2022/04/06 04:32:19;;;;;;;11.38;9.77;;;9.50;83.90;;;;;;5136752;27;20748;-59
2022/04/06 04:34:46;;;;;;;10.10;9.07;;;9.50;83.80;;;;;;5136712;27;20241;-58
2022/04/06 04:37:13;;;;;;;11.40;9.68;;;9.50;83.90;;;;;;5136713;27;20562;-58
2022/04/06 04:39:40;;;;;;;10.18;9.18;;;9.50;83.90;;;;;;5136679;27;20656;-57
2022/04/06 04:42:07;;;;;;;9.15;8.25;;;9.30;84.30;;;;;;5135238;27;20215;-58
2022/04/06 04:44:34;;;;;;;9.30;8.40;;;9.30;84.70;;;;;;5136405;27;20209;-58
2022/04/06 04:47:02;;;;;;;10.98;9.60;;;9.40;84.70;;;;;;5136252;27;20661;-58
2022/04/06 04:49:29;;;;;;;11.10;9.25;;;9.40;84.60;;;;;;5136475;27;20225;-58
2022/04/06 04:51:56;;;;;;;10.15;9.13;;;9.50;84.20;;;;;;5136412;27;20630;-58
2022/04/06 04:54:24;;;;;;;9.88;8.88;;;9.40;84.40;;;;;;5136094;27;20264;-58
2022/04/06 04:56:52;;;;;;;10.10;9.10;;;9.40;84.50;;;;;;5134845;27;20608;-58
2022/04/06 04:59:19;;;;;;;10.23;9.23;;;9.30;84.60;;;;;;5135895;27;20213;-57
2022/04/06 05:01:46;;;;;;;10.88;9.25;;;9.40;85.00;;;;;;5135770;27;20194;-58
2022/04/06 05:04:14;;;;;;;10.75;9.00;;;9.40;84.70;;;;;;5135839;27;20309;-59
2022/04/06 05:06:41;;;;;;;11.15;9.95;;;9.40;84.50;;;;;;5135848;27;20663;-58
2022/04/06 05:09:08;;;;;;;13.80;10.10;;;9.40;84.40;;;;;;5135881;27;20285;-58
2022/04/06 05:11:35;;;;;;;11.20;10.07;;;9.40;84.30;;;;;;5134492;27;20289;-58
2022/04/06 05:14:02;;;;;;;11.00;9.90;;;9.30;84.60;;;;;;5135593;27;20223;-58
2022/04/06 05:16:30;;;;;;;10.90;9.32;;;9.30;84.60;;;;;;5135654;27;20290;-58
2022/04/06 05:18:57;;;;;;;11.10;10.10;;;9.30;84.80;;;;;;5135719;27;20206;-58
2022/04/06 05:21:26;;;;;;;10.82;9.82;;;9.30;84.70;;;;;;5135862;27;20202;-58
2022/04/06 05:23:53;;;;;;;12.73;10.27;;;9.40;84.40;;;;;;5135720;27;20733;-58
2022/04/06 05:26:19;;;;;;;11.68;10.40;;;9.40;84.20;;;;;;5135546;27;20203;-58
2022/04/06 05:28:47;;;;;;;11.57;10.40;;;9.50;84.10;;;;;;5134616;27;20206;-58
2022/04/06 05:31:14;;;;;;;14.60;10.80;;;9.40;84.30;;;;;;5135155;27;20226;-60
2022/04/06 05:33:41;;;;;;;11.20;10.00;;;9.40;84.30;;;;;;5134730;27;20233;-58
2022/04/06 05:36:08;;;;;;;10.50;9.45;;;9.30;84.60;;;;;;5135545;27;20209;-58
2022/04/06 05:38:36;;;;;;;12.05;10.75;;;9.30;84.70;;;;;;5135331;27;20209;-58
2022/04/06 05:41:03;;;;;;;13.02;10.57;;;9.40;84.90;;;;;;5135062;27;20298;-57
2022/04/06 05:43:30;;;;;;;11.93;10.63;;;9.50;84.10;;;;;;5133965;27;20202;-58
2022/04/06 05:45:57;;;;;;;11.80;10.60;;;9.50;83.70;;;;;;5135147;27;20195;-58
2022/04/06 05:48:24;;;;;;;11.45;10.18;;;9.50;83.90;;;;;;5135235;27;20294;-58
2022/04/06 05:50:51;;;;;;;11.90;10.80;;;9.50;83.80;;;;;;5135121;27;20242;-58
2022/04/06 05:53:17;;;;;;;11.40;9.02;;;9.50;84.10;;;;;;5135039;27;20207;-58
2022/04/06 05:55:47;;;;;;;11.48;10.35;;;9.50;84.10;;;;;;5135002;27;20237;-57
2022/04/06 05:58:15;;;;;;;12.35;11.05;;;9.60;83.80;;;;;;5133779;27;20207;-58
2022/04/06 06:00:42;;;;;;;12.20;10.90;;;9.60;83.80;;;;;;5134819;27;20725;-58
2022/04/06 06:03:09;;;;;;;12.25;10.13;;;9.60;84.00;;;;;;5134968;27;20290;-58
2022/04/06 06:05:36;;;;;;;11.50;10.40;;;9.70;83.50;;;;;;5134748;27;20310;-58
2022/04/06 06:08:03;;;;;;;14.75;10.80;;;9.70;83.70;;;;;;5134660;27;20652;-58
2022/04/06 06:10:29;;;;;;;12.82;11.52;;;9.70;83.70;;;;;;5134841;27;20221;-58
2022/04/06 06:12:58;;;;;;;12.70;11.25;;;9.60;83.60;;;;;;5133445;27;20226;-58
2022/04/06 06:15:25;;;;;;;11.52;10.35;;;9.60;84.00;;;;;;5134474;27;20230;-59
2022/04/06 06:17:52;;;;;;;12.57;11.30;;;9.60;83.80;;;;;;5134461;27;20230;-58
2022/04/06 06:20:20;;;;;;;11.80;10.45;;;9.50;84.40;;;;;;5134535;27;20211;-58
2022/04/06 06:22:46;;;;;;;10.88;9.88;;;9.50;84.20;;;;;;5134454;27;20198;-59
2022/04/06 06:25:13;;;;;;;11.90;10.50;;;9.50;84.50;;;;;;5134543;27;20289;-60
2022/04/06 06:27:41;;;;;;;13.48;10.35;;;9.40;84.60;;;;;;5133075;27;20198;-59
2022/04/06 06:30:13;;;;;;;11.52;10.30;;;9.30;84.80;;;;;;5134195;27;20220;-58
2022/04/06 06:32:40;;;;;;;11.85;10.65;;;9.30;85.30;;;;;;5134349;27;20202;-59
2022/04/06 06:35:09;;;;;;;10.57;9.48;;;9.30;85.10;;;;;;5134141;27;20576;-59
2022/04/06 06:37:36;;;;;;;11.50;9.85;;;9.30;85.30;;;;;;5134198;27;20209;-59
2022/04/06 06:40:04;;;;;;;11.10;10.05;;;9.40;85.20;;;;;;5134332;27;20206;-58
2022/04/06 06:42:31;;;;;;;11.00;9.90;;;9.50;84.90;;;;;;5132758;27;20209;-58
2022/04/06 06:44:58;;;;;;;10.13;8.80;;;9.70;84.40;;;;;;5133983;27;20206;-57
2022/04/06 06:47:26;;;;;;;10.90;9.20;;;9.80;84.30;;;;;;5133842;27;20205;-58
2022/04/06 06:49:53;;;;;;;10.10;9.00;;;9.70;83.70;;;;;;5133712;27;20279;-58
2022/04/06 06:52:20;;;;;;;10.35;9.07;;;9.70;84.10;;;;;;5134118;27;20251;-58
2022/04/06 06:54:47;;;;;;;10.10;9.10;;;9.70;84.10;;;;;;5133750;27;20233;-58
2022/04/06 06:57:14;;;;;;;11.10;8.98;;;9.80;84.20;;;;;;5132506;27;20234;-57
2022/04/06 06:59:41;;;;;;;10.07;9.20;;;9.90;83.70;;;;;;5133800;27;20653;-58
2022/04/06 07:02:09;;;;;;;10.18;9.20;;;9.90;83.10;;;;;;5133612;27;20198;-58
2022/04/06 07:04:37;;;;;;;10.07;9.07;;;9.90;83.30;;;;;;5133574;27;20755;-57
2022/04/06 07:07:04;;;;;;;9.10;8.30;;;10.00;83.40;;;;;;5133710;27;20205;-58
2022/04/06 07:09:31;;;;;;;9.10;8.27;;;9.90;83.10;;;;;;5133786;27;20234;-58
2022/04/06 07:11:58;;;;;;;8.73;7.93;;;9.90;83.40;;;;;;5132393;27;20203;-61
2022/04/06 07:14:26;;;;;;;9.02;8.15;;;9.80;83.30;;;;;;5133580;27;20696;-58
2022/04/06 07:16:54;;;;;;;8.55;7.82;;;9.90;83.40;;;;;;5133486;27;20212;-59
2022/04/06 07:19:21;;;;;;;8.10;7.40;;;9.90;82.90;;;;;;5133700;27;20217;-59
2022/04/06 07:21:49;;;;;;;7.60;6.93;;;9.90;82.80;;;;;;5133672;27;20288;-58
2022/04/06 07:24:16;;;;;;;8.52;7.65;;;9.90;82.60;;;;;;5133717;27;20249;-58
2022/04/06 07:26:43;;;;;;;8.68;7.88;;;9.90;82.80;;;;;;5132190;27;20217;-59
2022/04/06 07:29:11;;;;;;;8.43;7.63;;;9.90;82.60;;;;;;5133662;27;20199;-58
2022/04/06 07:31:38;;;;;;;8.45;7.65;;;10.00;82.60;;;;;;5133209;27;20351;-58
2022/04/06 07:34:05;;;;;;;6.80;6.18;;;10.00;82.40;;;;;;5133437;27;20273;-58
2022/04/06 07:36:33;;;;;;;8.32;7.63;;;10.00;81.80;;;;;;5133459;27;20198;-58
2022/04/06 07:39:02;;;;;;;7.57;6.97;;;10.00;82.00;;;;;;5133474;27;20201;-57
2022/04/06 07:41:29;;;;;;;7.43;6.82;;;10.00;82.60;;;;;;5132238;27;20203;-57
2022/04/06 07:43:56;;;;;;;7.63;6.80;;;10.00;82.10;;;;;;5133409;27;20286;-58
2022/04/06 07:46:23;;;;;;;7.68;7.07;;;10.20;81.90;;;;;;5133481;27;20297;-58
2022/04/06 07:48:50;;;;;;;7.05;6.45;;;10.30;81.80;;;;;;5133483;27;20710;-58
2022/04/06 07:51:17;;;;;;;7.57;6.80;;;10.40;80.60;;;;;;5133392;27;20202;-57
2022/04/06 07:53:44;;;;;;;7.20;6.60;;;10.50;80.30;;;;;;5133450;27;20209;-57
2022/04/06 07:56:13;;;;;;;6.68;6.18;;;10.60;80.50;;;;;;5133607;27;20589;-58
2022/04/06 07:58:40;;;;;;;7.13;6.45;;;10.70;79.00;;;;;;5135885;27;20542;-59
2022/04/06 08:01:08;;;;;;;7.00;6.50;;;10.60;78.80;;;;;;5136971;27;20203;-57
2022/04/06 08:03:36;;;;;;;6.75;6.25;;;10.70;79.60;;;;;;5137030;27;20295;-58
2022/04/06 08:06:04;;;;;;;6.30;5.90;;;10.80;78.60;;;;;;5137273;27;20213;-58
2022/04/06 08:08:30;;;;;;;5.85;5.40;;;10.90;78.70;;;;;;5137134;27;20202;-58
2022/04/06 08:10:58;;;;;;;6.40;5.90;;;11.10;78.10;;;;;;5137073;27;20194;-59
2022/04/06 08:13:26;;;;;;;6.28;5.88;;;11.10;77.50;;;;;;5135529;27;20661;-57
2022/04/06 08:15:53;;;;;;;7.30;6.90;;;10.90;77.10;;;;;;5136914;27;20610;-57
2022/04/06 08:18:22;;;;;;;6.57;6.07;;;11.00;77.70;;;;;;5137031;27;20557;-57
2022/04/06 08:20:49;;;;;;;6.65;6.15;;;11.10;77.90;;;;;;5136951;27;20249;-58
2022/04/06 08:23:17;;;;;;;7.20;6.70;;;11.20;77.00;;;;;;5137040;27;20205;-57
2022/04/06 08:25:44;;;;;;;6.75;6.25;;;11.10;77.10;;;;;;5136809;27;20206;-58
2022/04/06 08:28:11;;;;;;;8.05;7.45;;;11.10;77.20;;;;;;5135479;27;20202;-58
2022/04/06 08:30:42;;;;;;;6.32;5.93;;;11.10;76.80;;;;;;5136534;27;20321;-57
2022/04/06 08:33:11;;;;;;;7.60;7.10;;;11.00;77.00;;;;;;5136618;27;20255;-58
2022/04/06 08:35:38;;;;;;;6.85;6.55;;;11.10;77.00;;;;;;5136324;27;20231;-58
2022/04/06 08:38:05;;;;;;;6.68;6.35;;;11.10;77.10;;;;;;5136490;27;20208;-57
2022/04/06 08:40:35;;;;;;;7.50;7.10;;;11.10;77.10;;;;;;5136544;27;20203;-58
2022/04/06 08:43:04;;;;;;;6.88;6.47;;;11.10;76.70;;;;;;5135335;27;20203;-58
2022/04/06 08:45:33;;;;;;;6.88;6.35;;;11.00;76.80;;;;;;5136414;27;20213;-58
2022/04/06 08:48:03;;;;;;;7.50;7.00;;;10.90;76.90;;;;;;5136262;27;20679;-57
2022/04/06 08:50:30;;;;;;;6.72;6.43;;;11.00;75.50;;;;;;5136313;27;20214;-58
2022/04/06 08:52:59;;;;;;;6.00;5.70;;;11.00;74.90;;;;;;5136164;27;20195;-58
2022/04/06 08:55:25;;;;;;;6.35;6.05;;;11.00;75.60;;;;;;5136084;27;20313;-58
2022/04/06 08:57:52;;;;;;;6.50;6.30;;;11.00;75.30;;;;;;5134782;27;20202;-58
2022/04/06 09:00:19;;;;;;;5.80;5.60;;;11.10;74.80;;;;;;5136147;27;20209;-58
2022/04/06 09:02:46;;;;;;;5.75;5.55;;;11.30;73.40;;;;;;5135990;27;20306;-58
2022/04/06 09:05:15;;;;;;;6.50;6.10;;;11.30;73.00;;;;;;5135945;27;20217;-58
2022/04/06 09:07:43;;;;;;;6.60;6.20;;;11.30;73.30;;;;;;5134848;27;20228;-58
2022/04/06 09:10:12;;;;;;;5.78;5.47;;;11.30;72.80;;;;;;5135538;27;20282;-57
2022/04/06 09:12:39;;;;;;;5.80;5.60;;;11.30;73.30;;;;;;5134503;27;20209;-57
2022/04/06 09:15:08;;;;;;;6.78;6.40;;;11.30;72.50;;;;;;5135712;27;20226;-58
2022/04/06 09:17:44;;;;;;;6.60;6.30;;;11.20;72.20;;;;;;5135588;27;20195;-57
2022/04/06 09:20:12;;;;;;;6.07;5.88;;;11.30;71.80;;;;;;5135626;27;20210;-58
2022/04/06 09:22:41;;;;;;;7.00;6.70;;;11.40;70.80;;;;;;5135690;27;20203;-57
2022/04/06 09:25:09;;;;;;;6.50;6.30;;;11.40;71.30;;;;;;5135540;27;20206;-58
2022/04/06 09:27:37;;;;;;;6.95;6.65;;;11.40;70.80;;;;;;5134395;27;20203;-59
2022/04/06 09:30:06;;;;;;;4.95;4.75;;;11.60;70.40;;;;;;5135380;27;20199;-57
2022/04/06 09:32:32;;;;;;;6.60;6.40;;;11.80;70.20;;;;;;5135247;27;20278;-58
2022/04/06 09:34:59;;;;;;;6.30;5.97;;;12.00;69.80;;;;;;5135354;27;20596;-58
2022/04/06 09:37:28;;;;;;;7.25;6.95;;;11.90;69.10;;;;;;5135341;27;20198;-58
2022/04/06 09:39:57;;;;;;;6.55;6.35;;;11.90;69.70;;;;;;5135210;27;20589;-58
2022/04/06 09:42:25;;;;;;;6.50;6.20;;;11.90;70.20;;;;;;5134115;27;20203;-58
2022/04/06 09:47:39;;;;;;;6.63;6.40;;;12.30;68.20;;;;;;5135070;27;20201;-59
2022/04/06 09:50:19;;;;;;;6.60;6.40;;;12.10;69.10;;;;;;5135019;27;20283;-57
2022/04/06 09:52:47;;;;;;;6.50;6.30;;;12.20;68.30;;;;;;5135090;27;20205;-57
2022/04/06 09:55:16;;;;;;;6.78;6.57;;;12.30;68.30;;;;;;5134958;27;20684;-58
2022/04/06 09:57:45;;;;;;;7.40;7.20;;;12.40;66.80;;;;;;5133620;27;20207;-58
2022/04/06 10:00:17;;;;;;;7.80;7.43;;;12.20;66.60;;;;;;5134936;27;20206;-60
2022/04/06 10:02:46;;;;;;;7.13;6.72;;;11.90;68.00;;;;;;5134517;27;20226;-58
2022/04/06 10:05:14;;;;;;;6.80;6.60;;;11.90;68.80;;;;;;5134800;27;20242;-58
2022/04/06 10:07:43;;;;;;;5.93;5.72;;;12.00;68.80;;;;;;5134771;27;20205;-57
2022/04/06 10:10:11;;;;;;;5.85;5.55;;;12.30;69.20;;;;;;5134547;27;20710;-57
2022/04/06 10:12:40;;;;;;;6.60;6.30;;;12.40;68.40;;;;;;5133343;27;20195;-59
2022/04/06 10:15:08;;;;;;;6.40;6.20;;;12.60;67.40;;;;;;5134633;27;20268;-57
2022/04/06 10:17:37;;;;;;;7.30;7.10;;;12.50;67.10;;;;;;5134541;27;20233;-57
2022/04/06 10:20:12;;;;;;;5.15;4.95;;;12.50;67.10;;;;;;5134090;27;20611;-57
2022/04/06 10:22:48;;;;;;;6.60;6.40;;;12.50;67.60;;;;;;5134396;27;20714;-59
2022/04/06 10:25:22;;;;;;;6.90;6.70;;;12.70;67.80;;;;;;5134624;27;20225;-58
2022/04/06 10:27:54;;;;;;;5.32;5.13;;;12.80;67.00;;;;;;5133236;27;20202;-59
2022/04/06 10:30:23;;;;;;;5.22;5.03;;;12.80;66.80;;;;;;5134328;27;20231;-57
2022/04/06 10:32:51;;;;;;;6.70;6.50;;;12.80;67.40;;;;;;5134289;27;20230;-59
2022/04/06 10:35:24;;;;;;;7.15;6.85;;;12.90;66.30;;;;;;5134017;27;20708;-56
2022/04/06 10:38:12;;;;;;;6.90;6.70;;;12.90;66.30;;;;;;5134365;27;20203;-57
2022/04/06 10:40:59;;;;;;;7.07;6.78;;;12.80;66.70;;;;;;5134325;27;20198;-60
2022/04/06 10:43:51;;;;;;;6.78;6.57;;;12.80;66.20;;;;;;5132800;27;20600;-57
2022/04/06 10:46:33;;;;;;;6.05;5.85;;;12.80;67.40;;;;;;5134091;27;20210;-57
2022/04/06 10:49:12;;;;;;;6.25;6.05;;;12.70;65.70;;;;;;5134223;27;20236;-56
2022/04/06 10:51:41;;;;;;;6.50;6.28;;;12.70;65.90;;;;;;5134122;27;20198;-59
2022/04/06 10:54:39;;;;;;;7.30;7.05;;;12.90;66.00;;;;;;5134097;27;20747;-59
2022/04/06 10:57:07;;;;;;;8.05;7.75;;;13.30;67.30;;;;;;5132644;27;20317;-60
2022/04/06 10:59:35;;;;;;;7.20;6.90;;;13.30;63.50;;;;;;5133853;27;20198;-59
2022/04/06 11:02:20;;;;;;;7.30;7.00;;;13.30;65.60;;;;;;5133714;27;20313;-59
2022/04/06 11:04:48;;;;;;;6.90;6.70;;;13.50;64.50;;;;;;5133909;27;20209;-59
2022/04/06 11:10:06;;;;;;;7.25;6.95;;;13.50;63.70;;;;;;5133894;27;20289;-60
2022/04/06 11:10:15;;;;;;;5.95;5.65;;;13.60;63.60;;;;;;5133762;27;20195;-59
2022/04/06 11:12:58;;;;;;;7.05;6.75;;;13.80;63.60;;;;;;5132520;27;20198;-59
2022/04/06 11:15:37;;;;;;;7.13;6.88;;;13.90;63.50;;;;;;5133810;27;20229;-59
2022/04/06 11:18:06;;;;;;;6.30;6.00;;;14.00;62.80;;;;;;5133675;27;20573;-60
2022/04/06 11:20:34;;;;;;;5.70;5.50;;;14.50;61.40;;;;;;5133736;27;20209;-59
2022/04/06 11:23:01;;;;;;;7.30;6.90;;;15.70;60.40;;;;;;5133672;27;20286;-59
2022/04/06 11:25:30;;;;;;;7.20;6.90;;;16.90;58.80;;;;;;5133518;27;20939;-59
2022/04/06 11:28:06;;;;;;;7.00;6.70;;;18.00;53.40;;;;;;5132492;27;20447;-58
2022/04/06 11:30:36;;;;;;;6.60;6.30;;;18.30;51.40;;;;;;5133460;27;20550;-59
2022/04/06 11:33:04;;;;;;;6.77;6.57;;;17.90;51.50;;;;;;5137076;27;20440;-59
2022/04/06 11:35:34;;;;;;;7.00;6.70;;;17.70;53.60;;;;;;5137535;27;20483;-59
2022/04/06 11:38:03;;;;;;;7.20;7.00;;;17.70;54.50;;;;;;5137824;27;20869;-60
2022/04/06 11:40:31;;;;;;;6.83;6.63;;;17.40;52.10;;;;;;5137647;27;20538;-59
2022/04/06 11:42:58;;;;;;;6.90;6.60;;;17.10;54.00;;;;;;5136444;27;20512;-59
2022/04/06 11:45:27;;;;;;;6.90;6.60;;;16.60;55.50;;;;;;5137521;27;20532;-61
2022/04/06 11:47:56;;;;;;;8.00;7.70;;;16.20;56.60;;;;;;5137372;27;20444;-59
2022/04/06 11:50:30;;;;;;;4.47;4.27;;;15.80;58.00;;;;;;5137388;27;20545;-59
2022/04/06 11:53:00;;;;;;;6.80;6.60;;;16.10;60.00;;;;;;5137374;27;20444;-59
2022/04/06 11:55:40;;;;;;;7.20;6.90;;;16.50;56.10;;;;;;5137467;27;20527;-59
2022/04/06 11:58:07;;;;;;;6.90;6.70;;;16.80;59.50;;;;;;5135966;27;20455;-61
2022/04/06 12:00:34;;;;;;;6.40;6.20;;;16.60;53.70;;;;;;5137193;27;20528;-59
2022/04/06 12:03:03;;;;;;;5.60;5.40;;;16.10;55.30;;;;;;5137132;27;20798;-59
2022/04/06 12:05:33;;;;;;;7.40;7.10;;;15.90;57.90;;;;;;5137166;27;20496;-60
2022/04/06 12:08:12;;;;;;;4.17;3.97;;;15.90;56.60;;;;;;5137054;27;20444;-59
2022/04/06 12:10:49;;;;;;;6.77;6.57;;;15.40;58.40;;;;;;5137207;27;20448;-59
2022/04/06 12:13:17;;;;;;;6.67;6.40;;;15.10;58.90;;;;;;5135623;27;20448;-59
2022/04/06 12:15:44;;;;;;;6.00;5.80;;;15.20;57.10;;;;;;5136851;27;20476;-59
2022/04/06 12:18:13;;;;;;;6.80;6.50;;;15.20;58.10;;;;;;5136858;27;20542;-60
2022/04/06 12:20:40;;;;;;;5.53;5.33;;;15.30;56.00;;;;;;5125168;27;20449;-59
2022/04/06 12:23:08;;;;;;;6.63;6.43;;;15.20;56.00;;;;;;5119563;27;20460;-59
2022/04/06 12:25:36;;;;;;;5.00;4.80;;;15.20;57.60;;;;;;5115378;28;20786;-59
2022/04/06 12:28:14;;;;;;;7.30;7.00;;;15.50;56.80;;;;;;5129557;27;20470;-61
2022/04/06 12:31:01;;;;;;;5.87;5.67;;;16.10;57.10;;;;;;5136032;27;20478;-58
2022/04/06 12:33:45;;;;;;;5.07;4.87;;;16.20;54.20;;;;;;5136082;27;20558;-58
2022/04/06 12:36:18;;;;;;;6.87;6.67;;;16.40;55.20;;;;;;5135626;27;20564;-59
2022/04/06 12:38:58;;;;;;;6.40;6.20;;;16.50;54.10;;;;;;5135747;27;20456;-58
2022/04/06 12:41:26;;;;;;;6.90;6.60;;;16.20;54.50;;;;;;5135287;27;20801;-58
2022/04/06 12:43:54;;;;;;;7.00;6.80;;;16.10;54.00;;;;;;5135206;27;20799;-58
2022/04/06 12:46:40;;;;;;;6.90;6.70;;;16.20;54.50;;;;;;5135896;27;20527;-59
2022/04/06 12:49:29;;;;;;;5.40;5.20;;;16.50;55.20;;;;;;5135560;27;20457;-58
2022/04/06 12:52:07;;;;;;;6.93;6.73;;;16.40;52.80;;;;;;5135467;27;20938;-58
2022/04/06 12:54:36;;;;;;;8.30;7.90;;;16.30;54.40;;;;;;5135647;27;20775;-58
2022/04/06 12:57:07;;;;;;;6.93;6.73;;;16.50;53.40;;;;;;5134028;27;20583;-59
2022/04/06 12:59:38;;;;;;;5.90;5.60;;;16.70;53.40;;;;;;5135396;27;20535;-58
2022/04/06 13:02:06;;;;;;;6.90;6.70;;;16.90;53.00;;;;;;5135148;27;20837;-59